createdAt,value
2022-10-04T00:01:27.865Z,14.09
2022-10-04T00:04:06.976Z,14.34
2022-10-04T00:06:36.075Z,13.98
2022-10-04T00:09:08.895Z,14.29
2022-10-04T00:11:38.906Z,14.05
2022-10-04T00:14:09.449Z,14.04
2022-10-04T00:16:40.527Z,14.27
2022-10-04T00:19:28.508Z,14.83
2022-10-04T00:22:27.588Z,14.59
2022-10-04T00:25:19.942Z,14.53
2022-10-04T00:28:25.696Z,14.55
2022-10-04T00:31:22.090Z,14.55
2022-10-04T00:33:57.168Z,14.28
2022-10-04T00:36:46.732Z,14.52
2022-10-04T00:39:25.522Z,14.28
2022-10-04T00:42:09.607Z,14.41
2022-10-04T00:44:44.418Z,14.36
2022-10-04T00:47:24.127Z,14.39
2022-10-04T00:49:57.221Z,14.22
2022-10-04T00:52:28.059Z,14.10
2022-10-04T00:54:59.022Z,14.12
2022-10-04T00:57:29.549Z,14.01
2022-10-04T00:59:59.850Z,14.05
2022-10-04T01:02:30.851Z,14.02
2022-10-04T01:05:02.755Z,14.15
2022-10-04T01:07:34.518Z,14.18
2022-10-04T01:10:05.755Z,13.96
2022-10-04T01:12:41.200Z,14.34
2022-10-04T01:15:14.343Z,14.28
2022-10-04T01:17:42.362Z,13.81
2022-10-04T01:23:05.548Z,14.24
2022-10-04T01:25:49.230Z,14.32
2022-10-04T01:28:17.836Z,13.71
2022-10-04T01:30:46.363Z,13.67
2022-10-04T01:33:14.825Z,13.82
2022-10-04T01:35:42.965Z,13.72
2022-10-04T01:38:12.987Z,14.07
2022-10-04T01:40:45.848Z,14.18
2022-10-04T01:43:15.892Z,13.76
2022-10-04T01:45:48.047Z,14.05
2022-10-04T01:48:18.584Z,13.97
2022-10-04T01:50:51.465Z,14.06
2022-10-04T01:53:23.893Z,14.15
2022-10-04T01:55:53.692Z,14.02
2022-10-04T01:58:24.112Z,14.08
2022-10-04T02:00:55.809Z,14.21
2022-10-04T02:03:29.176Z,14.24
2022-10-04T02:06:00.680Z,14.21
2022-10-04T02:08:32.491Z,14.23
2022-10-04T02:11:01.884Z,13.92
2022-10-04T02:13:35.006Z,14.09
2022-10-04T02:16:04.081Z,13.61
2022-10-04T02:18:34.308Z,13.60
2022-10-04T02:21:02.631Z,13.44
2022-10-04T02:23:32.596Z,13.74
2022-10-04T02:26:00.914Z,13.39
2022-10-04T02:28:29.127Z,13.34
2022-10-04T02:31:15.281Z,13.35
2022-10-04T02:33:45.160Z,13.59
2022-10-04T02:36:14.015Z,13.32
2022-10-04T02:38:46.937Z,13.66
2022-10-04T02:41:22.448Z,13.75
2022-10-04T02:43:53.285Z,13.57
2022-10-04T02:46:25.350Z,13.72
2022-10-04T02:48:56.388Z,13.53
2022-10-04T02:51:27.181Z,13.58
2022-10-04T02:54:05.806Z,13.79
2022-10-04T02:56:34.665Z,13.06
2022-10-04T02:59:03.983Z,13.29
2022-10-04T03:01:43.908Z,13.65
2022-10-04T03:04:15.141Z,13.47
2022-10-04T03:06:46.071Z,13.47
2022-10-04T03:09:16.752Z,13.49
2022-10-04T03:11:46.625Z,13.20
2022-10-04T03:14:17.184Z,13.42
2022-10-04T03:16:46.919Z,13.53
2022-10-04T03:19:17.181Z,13.59
2022-10-04T03:21:47.271Z,13.54
2022-10-04T03:24:19.775Z,13.71
2022-10-04T03:26:49.664Z,13.57
2022-10-04T03:29:19.855Z,13.73
2022-10-04T03:31:49.973Z,13.65
2022-10-04T03:34:20.115Z,13.57
2022-10-04T03:36:50.278Z,13.64
2022-10-04T03:39:28.230Z,13.77
2022-10-04T03:41:57.907Z,13.39
2022-10-04T03:44:26.079Z,13.27
2022-10-04T03:46:54.264Z,13.31
2022-10-04T03:49:27.430Z,13.77
2022-10-04T03:51:55.631Z,13.30
2022-10-04T03:54:28.023Z,13.73
2022-10-04T03:56:56.886Z,13.54
2022-10-04T03:59:26.614Z,13.76
2022-10-04T04:02:04.442Z,14.00
2022-10-04T04:04:41.859Z,13.96
2022-10-04T04:07:14.301Z,13.85
2022-10-04T04:09:46.377Z,13.81
2022-10-04T04:12:18.042Z,13.77
2022-10-04T04:14:48.208Z,13.64
2022-10-04T04:17:31.763Z,14.05
2022-10-04T04:20:06.923Z,13.68
2022-10-04T04:22:37.879Z,13.67
2022-10-04T04:25:09.828Z,13.84
2022-10-04T04:27:39.999Z,13.65
2022-10-04T04:30:09.860Z,13.64
2022-10-04T04:32:40.311Z,13.64
2022-10-04T04:35:22.497Z,13.80
2022-10-04T04:38:05.565Z,13.72
2022-10-04T04:40:35.311Z,13.30
2022-10-04T04:43:04.083Z,13.02
2022-10-04T04:45:34.105Z,13.10
2022-10-04T04:48:03.996Z,12.83
2022-10-04T04:50:35.863Z,13.00
2022-10-04T04:53:06.945Z,12.89
2022-10-04T04:56:01.759Z,13.50
2022-10-04T04:58:27.945Z,12.96
2022-10-04T05:00:59.094Z,12.98
2022-10-04T05:03:30.054Z,12.63
2022-10-04T05:06:02.948Z,12.81
2022-10-04T05:08:34.097Z,12.94
2022-10-04T05:11:13.023Z,13.26
2022-10-04T05:13:43.338Z,13.15
2022-10-04T05:16:13.547Z,13.16
2022-10-04T05:18:41.707Z,12.84
2022-10-04T05:21:14.628Z,13.15
2022-10-04T05:23:43.060Z,12.75
2022-10-04T05:26:14.715Z,13.25
2022-10-04T05:28:45.781Z,12.86
2022-10-04T05:31:37.436Z,13.62
2022-10-04T05:34:16.629Z,13.37
2022-10-04T05:36:56.845Z,13.70
2022-10-04T05:39:28.338Z,13.56
2022-10-04T05:42:02.969Z,13.85
2022-10-04T05:44:33.219Z,13.82
2022-10-04T05:47:03.447Z,13.86
2022-10-04T05:49:36.115Z,14.10
2022-10-04T05:52:07.716Z,14.24
2022-10-04T05:54:37.949Z,15.51
2022-10-04T05:57:31.527Z,15.74
2022-10-04T06:00:20.796Z,15.81
2022-10-04T06:03:11.245Z,15.47
2022-10-04T06:05:55.075Z,15.41
2022-10-04T06:08:31.948Z,15.08
2022-10-04T06:11:08.973Z,14.99
2022-10-04T06:14:15.580Z,15.20
2022-10-04T06:17:00.084Z,15.20
2022-10-04T06:19:58.449Z,15.17
2022-10-04T06:22:27.752Z,14.64
2022-10-04T06:24:58.805Z,14.77
2022-10-04T06:27:31.637Z,14.95
2022-10-04T06:30:04.509Z,14.99
2022-10-04T06:32:58.546Z,15.22
2022-10-04T06:35:41.620Z,15.36
2022-10-04T06:38:47.209Z,15.21
2022-10-04T06:41:28.551Z,15.20
2022-10-04T06:44:22.151Z,15.60
2022-10-04T06:46:52.041Z,15.27
2022-10-04T06:49:33.460Z,15.79
2022-10-04T06:52:27.912Z,15.75
2022-10-04T06:55:42.203Z,15.96
2022-10-04T06:58:35.393Z,15.75
2022-10-04T07:01:06.017Z,15.50
2022-10-04T07:03:40.455Z,15.82
2022-10-04T07:06:11.770Z,15.89
2022-10-04T07:08:45.224Z,16.07
2022-10-04T07:11:15.792Z,16.40
2022-10-04T07:13:50.812Z,16.82
2022-10-04T07:16:38.265Z,17.16
2022-10-04T07:19:29.636Z,17.25
2022-10-04T07:22:03.438Z,17.27
2022-10-04T07:24:48.217Z,17.44
2022-10-04T07:27:18.845Z,17.33
2022-10-04T07:29:52.332Z,17.23
2022-10-04T07:32:23.369Z,17.20
2022-10-04T07:34:55.641Z,17.08
2022-10-04T07:37:27.421Z,17.12
2022-10-04T07:39:58.929Z,17.08
2022-10-04T07:42:30.735Z,17.16
2022-10-04T07:45:06.327Z,17.14
2022-10-04T07:47:34.575Z,16.65
2022-10-04T07:50:17.472Z,16.91
2022-10-04T07:52:57.199Z,16.55
2022-10-04T07:55:30.072Z,16.57
2022-10-04T07:58:07.421Z,16.78
2022-10-04T08:00:41.798Z,17.02
2022-10-04T08:03:19.267Z,17.38
2022-10-04T08:05:52.373Z,18.20
2022-10-04T08:08:32.305Z,18.92
2022-10-04T08:11:12.924Z,19.77
2022-10-04T08:13:51.240Z,20.72
2022-10-04T08:16:36.132Z,21.89
2022-10-04T08:19:28.783Z,24.64
2022-10-04T08:22:01.806Z,26.59
2022-10-04T08:24:37.520Z,28.70
2022-10-04T08:27:26.485Z,30.76
2022-10-04T08:30:05.498Z,29.94
2022-10-04T08:32:54.829Z,28.95
2022-10-04T08:35:35.921Z,29.42
2022-10-04T08:38:42.586Z,29.96
2022-10-04T08:41:48.226Z,28.45
2022-10-04T08:44:46.003Z,26.72
2022-10-04T08:47:28.842Z,26.35
2022-10-04T08:50:19.671Z,26.03
2022-10-04T08:52:57.214Z,25.24
2022-10-04T08:55:42.748Z,23.92
2022-10-04T08:58:21.411Z,23.47
2022-10-04T09:01:08.064Z,26.74
2022-10-04T09:04:01.778Z,29.13
2022-10-04T09:06:44.679Z,30.48
2022-10-04T09:10:00.684Z,32.54
2022-10-04T09:12:45.269Z,31.46
2022-10-04T09:15:44.540Z,30.22
2022-10-04T09:18:23.210Z,27.40
2022-10-04T09:20:59.188Z,25.54
2022-10-04T09:24:09.301Z,24.41
2022-10-04T09:26:46.090Z,24.03
2022-10-04T09:29:49.750Z,27.71
2022-10-04T09:32:49.082Z,31.40
2022-10-04T09:36:04.847Z,35.05
2022-10-04T09:39:25.276Z,35.73
2022-10-04T09:42:02.251Z,33.93
2022-10-04T09:44:57.152Z,33.73
2022-10-04T09:47:37.850Z,33.50
2022-10-04T09:50:40.256Z,31.38
2022-10-04T09:53:21.348Z,32.04
2022-10-04T09:56:09.292Z,35.16
2022-10-04T09:59:12.555Z,36.20
2022-10-04T10:01:59.695Z,36.44
2022-10-04T10:04:39.839Z,36.64
2022-10-04T10:07:21.862Z,35.45
2022-10-04T10:10:15.200Z,34.88
2022-10-04T10:13:20.406Z,35.79
2022-10-04T10:15:59.652Z,36.23
2022-10-04T10:18:34.671Z,34.60
2022-10-04T10:21:19.805Z,33.63
2022-10-04T10:24:08.881Z,31.44
2022-10-04T10:27:10.038Z,32.73
2022-10-04T10:30:07.312Z,36.33
2022-10-04T10:33:32.748Z,37.10
2022-10-04T10:36:30.379Z,33.64
2022-10-04T10:39:24.140Z,32.10
2022-10-04T10:42:11.165Z,34.50
2022-10-04T10:45:03.247Z,37.04
2022-10-04T10:47:40.070Z,36.18
2022-10-04T10:50:21.729Z,34.52
2022-10-04T10:53:12.372Z,31.81
2022-10-04T10:55:58.327Z,30.85
2022-10-04T10:58:53.779Z,31.45
2022-10-04T11:01:39.810Z,32.25
2022-10-04T11:04:32.119Z,33.71
2022-10-04T11:07:16.472Z,32.93
2022-10-04T11:10:37.266Z,30.06
2022-10-04T11:13:25.872Z,27.99
2022-10-04T11:16:19.767Z,27.41
2022-10-04T11:19:16.707Z,26.88
2022-10-04T11:22:09.703Z,28.87
2022-10-04T11:24:56.271Z,31.14
2022-10-04T11:27:29.830Z,33.47
2022-10-04T11:30:25.208Z,35.66
2022-10-04T11:33:27.157Z,36.38
2022-10-04T11:36:36.086Z,36.16
2022-10-04T11:39:22.958Z,35.22
2022-10-04T11:41:56.446Z,33.05
2022-10-04T11:44:47.667Z,31.00
2022-10-04T11:47:26.509Z,29.00
2022-10-04T11:50:09.805Z,27.62
2022-10-04T11:53:16.102Z,26.74
2022-10-04T11:55:57.502Z,25.82
2022-10-04T11:58:34.001Z,25.21
2022-10-04T12:01:30.534Z,24.88
2022-10-04T12:04:28.367Z,24.35
2022-10-04T12:07:08.548Z,23.64
2022-10-04T12:09:43.124Z,23.30
2022-10-04T12:12:40.610Z,23.39
2022-10-04T12:15:34.797Z,23.51
2022-10-04T12:18:41.202Z,23.22
2022-10-04T12:21:29.033Z,22.93
2022-10-04T12:24:04.595Z,22.40
2022-10-04T12:26:49.887Z,22.19
2022-10-04T12:29:29.282Z,21.98
2022-10-04T12:31:59.728Z,21.48
2022-10-04T12:34:32.201Z,21.36
2022-10-04T12:37:15.335Z,21.35
2022-10-04T12:40:00.775Z,21.09
2022-10-04T12:42:36.244Z,21.06
2022-10-04T12:45:29.926Z,21.14
2022-10-04T12:48:26.974Z,21.23
2022-10-04T12:51:01.744Z,21.07
2022-10-04T12:53:38.624Z,21.24
2022-10-04T12:56:10.269Z,21.24
2022-10-04T12:58:53.054Z,21.24
2022-10-04T13:01:28.230Z,21.28
2022-10-04T13:04:11.925Z,21.46
2022-10-04T13:06:48.805Z,21.04
2022-10-04T13:09:25.637Z,20.85
2022-10-04T13:12:09.534Z,20.94
2022-10-04T13:14:49.216Z,20.77
2022-10-04T13:17:35.376Z,20.47
2022-10-04T13:20:26.078Z,20.48
2022-10-04T13:22:58.135Z,20.09
2022-10-04T13:25:46.381Z,20.01
2022-10-04T13:28:21.643Z,19.82
2022-10-04T13:30:58.666Z,19.88
2022-10-04T13:33:34.000Z,19.97
2022-10-04T13:36:07.961Z,19.92
2022-10-04T13:39:09.562Z,19.94
2022-10-04T13:41:55.099Z,19.76
2022-10-04T13:44:34.862Z,19.57
2022-10-04T13:47:27.101Z,19.60
2022-10-04T13:50:06.479Z,19.48
2022-10-04T13:53:00.102Z,19.46
2022-10-04T13:55:50.183Z,19.26
2022-10-04T13:58:33.435Z,19.48
2022-10-04T14:01:15.472Z,19.27
2022-10-04T14:03:55.718Z,19.11
2022-10-04T14:06:51.945Z,19.26
2022-10-04T14:09:34.686Z,19.08
2022-10-04T14:12:49.418Z,19.21
2022-10-04T14:15:35.174Z,19.23
2022-10-04T14:18:23.471Z,19.42
2022-10-04T14:21:42.698Z,19.38
2022-10-04T14:24:42.001Z,19.35
2022-10-04T14:27:22.544Z,19.32
2022-10-04T14:30:06.511Z,19.49
2022-10-04T14:33:02.089Z,19.62
2022-10-04T14:35:33.662Z,19.39
2022-10-04T14:38:34.751Z,19.39
2022-10-04T14:41:30.134Z,19.19
2022-10-04T14:44:25.546Z,19.10
2022-10-04T14:47:02.074Z,18.90
2022-10-04T14:49:48.039Z,19.08
2022-10-04T14:52:32.671Z,18.89
2022-10-04T14:55:14.039Z,18.80
2022-10-04T14:58:00.414Z,18.78
2022-10-04T15:00:31.602Z,18.52
2022-10-04T15:03:31.792Z,18.79
2022-10-04T15:06:24.057Z,18.76
2022-10-04T15:09:13.335Z,18.70
2022-10-04T15:11:57.572Z,18.24
2022-10-04T15:14:39.487Z,18.26
2022-10-04T15:17:11.938Z,18.15
2022-10-04T15:20:01.083Z,18.38
2022-10-04T15:22:33.198Z,18.04
2022-10-04T15:25:01.475Z,17.47
2022-10-04T15:27:53.928Z,18.16
2022-10-04T15:30:36.055Z,17.93
2022-10-04T15:33:19.410Z,18.04
2022-10-04T15:36:10.263Z,17.93
2022-10-04T15:38:47.500Z,17.78
2022-10-04T15:41:18.338Z,17.44
2022-10-04T15:43:59.279Z,17.47
2022-10-04T15:46:39.770Z,17.54
2022-10-04T15:49:37.177Z,17.57
2022-10-04T15:52:43.454Z,17.44
2022-10-04T15:55:26.561Z,17.20
2022-10-04T15:58:40.376Z,17.23
2022-10-04T16:01:52.163Z,16.97
2022-10-04T16:04:40.481Z,16.92
2022-10-04T16:07:25.862Z,16.69
2022-10-04T16:09:59.391Z,16.32
2022-10-04T16:12:30.273Z,16.18
2022-10-04T16:15:14.740Z,16.39
2022-10-04T16:17:57.672Z,16.32
2022-10-04T16:20:56.984Z,16.42
2022-10-04T16:23:31.632Z,16.08
2022-10-04T16:26:01.835Z,15.78
2022-10-04T16:29:01.330Z,16.12
2022-10-04T16:31:43.978Z,15.99
2022-10-04T16:34:24.225Z,15.79
2022-10-04T16:36:57.669Z,15.72
2022-10-04T16:39:52.877Z,15.74
2022-10-04T16:42:24.081Z,15.49
2022-10-04T16:44:56.506Z,15.47
2022-10-04T16:47:28.745Z,15.29
2022-10-04T16:49:58.408Z,15.08
2022-10-04T16:52:53.849Z,15.40
2022-10-04T16:55:53.347Z,15.48
2022-10-04T16:58:49.947Z,15.50
2022-10-04T17:01:31.380Z,15.33
2022-10-04T17:04:12.420Z,15.22
2022-10-04T17:06:48.348Z,15.12
2022-10-04T17:09:25.809Z,15.07
2022-10-04T17:12:04.738Z,15.00
2022-10-04T17:15:00.693Z,15.00
2022-10-04T17:17:44.262Z,14.97
2022-10-04T17:20:22.232Z,14.83
2022-10-04T17:23:05.470Z,14.84
2022-10-04T17:25:39.930Z,14.78
2022-10-04T17:28:18.955Z,14.83
2022-10-04T17:30:50.332Z,14.73
2022-10-04T17:33:29.503Z,14.76
2022-10-04T17:36:30.185Z,14.80
2022-10-04T17:39:08.749Z,14.67
2022-10-04T17:41:59.055Z,14.80
2022-10-04T17:44:34.354Z,14.52
2022-10-04T17:47:07.095Z,14.44
2022-10-04T17:50:05.372Z,14.48
2022-10-04T17:53:01.346Z,14.33
2022-10-04T17:55:39.422Z,14.28
2022-10-04T17:58:14.205Z,14.30
2022-10-04T18:00:54.105Z,14.30
2022-10-04T18:03:25.098Z,14.23
2022-10-04T18:05:56.079Z,14.05
2022-10-04T18:08:36.651Z,14.26
2022-10-04T18:11:08.108Z,14.10
2022-10-04T18:13:41.038Z,14.16
2022-10-04T18:16:15.331Z,14.10
2022-10-04T18:18:44.768Z,13.79
2022-10-04T18:21:29.697Z,14.25
2022-10-04T18:24:02.125Z,13.94
2022-10-04T18:26:35.426Z,13.90
2022-10-04T18:29:11.200Z,14.01
2022-10-04T18:31:41.515Z,13.79
2022-10-04T18:34:28.348Z,14.04
2022-10-04T18:37:07.124Z,13.99
2022-10-04T18:39:50.553Z,13.95
2022-10-04T18:42:25.122Z,13.61
2022-10-04T18:45:04.468Z,13.65
2022-10-04T18:47:43.451Z,13.64
2022-10-04T18:50:22.544Z,13.64
2022-10-04T18:53:07.191Z,13.66
2022-10-04T18:55:43.733Z,13.62
2022-10-04T18:58:41.851Z,13.62
2022-10-04T19:01:46.078Z,13.67
2022-10-04T19:04:22.157Z,13.54
2022-10-04T19:06:52.889Z,13.26
2022-10-04T19:09:30.486Z,13.41
2022-10-04T19:12:04.890Z,13.33
2022-10-04T19:14:39.428Z,13.37
2022-10-04T19:17:18.209Z,13.40
2022-10-04T19:19:55.657Z,13.39
2022-10-04T19:22:36.623Z,13.33
2022-10-04T19:25:19.933Z,13.43
2022-10-04T19:27:51.715Z,13.28
2022-10-04T19:30:21.908Z,13.14
2022-10-04T19:33:02.475Z,13.34
2022-10-04T19:35:44.112Z,13.34
2022-10-04T19:38:22.468Z,13.23
2022-10-04T19:40:54.131Z,13.09
2022-10-04T19:43:26.967Z,13.11
2022-10-04T19:46:07.245Z,13.27
2022-10-04T19:48:42.515Z,13.08
2022-10-04T19:51:16.428Z,13.01
2022-10-04T19:53:46.072Z,12.80
2022-10-04T19:56:18.337Z,12.81
2022-10-04T19:58:50.678Z,12.84
2022-10-04T20:01:23.249Z,12.75
2022-10-04T20:04:07.978Z,12.80
2022-10-04T20:06:40.740Z,12.79
2022-10-04T20:09:25.168Z,12.96
2022-10-04T20:11:53.851Z,12.47
2022-10-04T20:14:47.140Z,13.04
2022-10-04T20:17:33.637Z,12.93
2022-10-04T20:20:03.380Z,12.53
2022-10-04T20:22:55.745Z,12.86
2022-10-04T20:26:00.234Z,12.82
2022-10-04T20:28:40.181Z,12.67
2022-10-04T20:31:09.845Z,12.21
2022-10-04T20:33:56.092Z,12.77
2022-10-04T20:36:54.336Z,12.79
2022-10-04T20:39:58.832Z,12.82
2022-10-04T20:42:33.869Z,12.56
2022-10-04T20:45:03.947Z,12.13
2022-10-04T20:47:39.555Z,12.30
2022-10-04T20:50:16.203Z,12.40
2022-10-04T20:52:47.123Z,12.18
2022-10-04T20:55:27.235Z,12.40
2022-10-04T20:58:00.300Z,12.25
2022-10-04T21:00:33.742Z,11.95
2022-10-04T21:03:16.665Z,12.35
2022-10-04T21:05:49.857Z,11.87
2022-10-04T21:08:26.235Z,12.15
2022-10-04T21:11:16.941Z,12.30
2022-10-04T21:13:57.823Z,12.16
2022-10-04T21:16:47.262Z,12.44
2022-10-04T21:19:44.254Z,12.48
2022-10-04T21:22:33.108Z,12.56
2022-10-04T21:25:02.941Z,12.06
2022-10-04T21:27:32.302Z,12.00
2022-10-04T21:30:02.832Z,12.15
2022-10-04T21:32:35.641Z,12.13
2022-10-04T21:35:04.136Z,11.67
2022-10-04T21:37:32.802Z,11.68
2022-10-04T21:40:01.078Z,11.50
2022-10-04T21:42:29.235Z,11.51
2022-10-04T21:44:57.626Z,11.53
2022-10-04T21:47:27.406Z,11.76
2022-10-04T21:49:55.642Z,11.42
2022-10-04T21:52:24.161Z,11.46
2022-10-04T21:54:52.580Z,11.52
2022-10-04T21:57:22.322Z,11.43
2022-10-04T21:59:50.840Z,11.38
2022-10-04T22:02:19.048Z,11.35
2022-10-04T22:04:48.605Z,11.56
2022-10-04T22:07:16.864Z,11.24
2022-10-04T22:09:44.994Z,11.20
2022-10-04T22:12:13.098Z,11.13
2022-10-04T22:14:41.410Z,11.06
2022-10-04T22:17:09.668Z,11.11
2022-10-04T22:19:37.901Z,11.02
2022-10-04T22:22:07.611Z,11.50
2022-10-04T22:24:37.216Z,11.34
2022-10-04T22:27:11.885Z,11.59
2022-10-04T22:29:40.240Z,11.18
2022-10-04T22:32:12.880Z,11.63
2022-10-04T22:34:41.262Z,11.22
2022-10-04T22:37:12.844Z,11.64
2022-10-04T22:39:41.192Z,11.30
2022-10-04T22:42:14.131Z,11.89
2022-10-04T22:44:42.796Z,11.45
2022-10-04T22:47:13.258Z,11.72
2022-10-04T22:49:43.875Z,11.68
2022-10-04T22:52:16.438Z,11.75
2022-10-04T22:54:46.597Z,11.49
2022-10-04T22:57:16.746Z,11.52
2022-10-04T22:59:46.860Z,11.54
2022-10-04T23:02:16.961Z,11.40
2022-10-04T23:04:47.675Z,11.61
2022-10-04T23:07:17.562Z,11.50
2022-10-04T23:09:45.791Z,11.13
2022-10-04T23:12:14.160Z,11.08
2022-10-04T23:14:42.653Z,11.16
2022-10-04T23:17:25.430Z,11.49
2022-10-04T23:19:55.320Z,11.22
2022-10-04T23:22:28.239Z,11.50
2022-10-04T23:24:57.358Z,11.07
2022-10-04T23:27:25.715Z,10.85
2022-10-04T23:29:59.666Z,11.26
2022-10-04T23:32:28.421Z,10.92
2022-10-04T23:34:57.119Z,10.81
2022-10-04T23:37:28.790Z,11.12
2022-10-04T23:39:57.144Z,10.71
2022-10-04T23:42:29.739Z,10.97
2022-10-04T23:44:59.205Z,10.83
2022-10-04T23:47:32.760Z,10.97
2022-10-04T23:50:01.326Z,10.52
2022-10-04T23:52:36.415Z,10.97
2022-10-04T23:55:15.779Z,10.96
2022-10-04T23:57:43.847Z,10.42
